Back to top

Casper, Wyoming Weather

Natrona County International Airport, Casper, WY: 3/21/2019 03:53
Visibility10 statute milesclear sky
View 7-Day Forecast
Area Summary
Sky/CloudsSky Clear
Weather [last 24 hours]None
Pressure30.19 in.Hg (1022 hPa)
Dew Point19 °F (-7.2 °C)
Relative Humidity88.4 %
Temperature21.9 °F (-5.6 °C)blue thermometer
Wind Chill17.2 °F (-8.23 °C)
Reading TimeMinimum to Maximum Temperature
6-hr ending 3/20@23:5328.9 °F to 44.1 °F (-1.7 °C to 6.7 °C)
6-hr ending 3/20@17:5339 °F to 46 °F (3.9 °C to 7.8 °C)
6-hr ending 3/20@11:5321.9 °F to 39.9 °F (-5.6 °C to 4.4 °C)
6-hr ending 3/20@05:5323 °F to 28 °F (-5 °C to -2.2 °C)
24-hr ending 3/21@00:5321.9 °F to 46 °F (-5.6 °C to 7.8 °C)
Wind3.45 MPH (3 KT) green arrow pointing 202.5 degrees
Wind FromSouth/Southwest (210 Degrees)
Twilight Begins06:37Sunshine Yesterday
Sunrise07:05N/A
Sunset19:21
Twilight Ends19:49
METARKCPR 210953Z AUTO 21003KT 10SM CLR M06/M07 A3019 RMK AO2 SLP238 T10561072